createdAt,value
2018-10-19T00:01:09.488Z,11.98
2018-10-19T00:03:37.817Z,11.99
2018-10-19T00:08:33.587Z,11.86
2018-10-19T00:11:01.952Z,11.78
2018-10-19T00:13:30.281Z,11.85
2018-10-19T00:22:19.536Z,11.75
2018-10-19T00:24:47.907Z,11.73
2018-10-19T00:27:16.317Z,11.70
2018-10-19T00:29:44.883Z,11.71
2018-10-19T00:32:13.458Z,11.69
2018-10-19T00:34:41.802Z,11.67
2018-10-19T00:37:10.738Z,11.74
2018-10-19T00:39:39.095Z,11.71
2018-10-19T00:42:07.472Z,11.75
2018-10-19T00:44:35.829Z,11.68
2018-10-19T00:47:04.233Z,11.71
2018-10-19T00:49:32.589Z,11.65
2018-10-19T00:52:00.924Z,11.68
2018-10-19T00:54:29.313Z,11.63
2018-10-19T00:56:57.754Z,11.70
2018-10-19T00:59:26.107Z,11.55
2018-10-19T01:01:54.435Z,11.49
2018-10-19T01:04:22.777Z,11.41
2018-10-19T01:06:51.172Z,11.39
2018-10-19T01:09:19.520Z,11.42
2018-10-19T01:11:47.866Z,11.40
2018-10-19T01:14:16.200Z,11.35
2018-10-19T01:16:44.554Z,11.41
2018-10-19T01:19:12.888Z,11.36
2018-10-19T01:21:41.235Z,11.40
2018-10-19T01:24:09.613Z,11.38
2018-10-19T01:26:37.967Z,11.32
2018-10-19T01:29:06.404Z,11.32
2018-10-19T01:31:35.061Z,11.32
2018-10-19T01:34:03.415Z,11.31
2018-10-19T01:36:37.121Z,11.28
2018-10-19T01:39:07.420Z,11.24
2018-10-19T01:41:35.776Z,11.16
2018-10-19T01:44:04.129Z,11.18
2018-10-19T01:46:32.484Z,11.14
2018-10-19T01:49:00.825Z,11.10
2018-10-19T01:51:29.202Z,11.04
2018-10-19T01:53:57.544Z,11.08
2018-10-19T01:56:25.857Z,11.03
2018-10-19T01:58:54.168Z,11.00
2018-10-19T02:01:22.957Z,10.94
2018-10-19T02:03:51.461Z,10.95
2018-10-19T02:06:19.768Z,10.93
2018-10-19T02:08:48.089Z,10.88
2018-10-19T02:11:16.413Z,10.88
2018-10-19T02:13:44.770Z,10.90
2018-10-19T02:16:13.159Z,10.79
2018-10-19T02:18:41.507Z,10.83
2018-10-19T02:21:09.901Z,10.83
2018-10-19T02:23:38.205Z,10.70
2018-10-19T02:26:06.543Z,10.71
2018-10-19T02:28:34.856Z,10.60
2018-10-19T02:31:03.541Z,10.58
2018-10-19T02:33:31.886Z,10.55
2018-10-19T02:36:00.199Z,10.50
2018-10-19T02:38:28.613Z,10.53
2018-10-19T02:40:57.020Z,10.48
2018-10-19T02:43:25.407Z,10.53
2018-10-19T02:45:53.720Z,10.46
2018-10-19T02:48:22.059Z,10.42
2018-10-19T02:50:50.406Z,10.45
2018-10-19T02:53:18.874Z,10.36
2018-10-19T02:55:47.084Z,10.43
2018-10-19T02:58:15.409Z,10.40
2018-10-19T03:00:43.719Z,10.34
2018-10-19T03:03:12.078Z,10.35
2018-10-19T03:05:40.368Z,10.33
2018-10-19T03:08:08.682Z,10.26
2018-10-19T03:10:36.992Z,10.29
2018-10-19T03:13:05.439Z,10.29
2018-10-19T03:15:33.752Z,10.34
2018-10-19T03:18:02.093Z,10.36
2018-10-19T03:20:30.443Z,10.37
2018-10-19T03:22:58.880Z,10.40
2018-10-19T03:25:27.195Z,10.34
2018-10-19T03:27:55.495Z,10.24
2018-10-19T03:30:23.813Z,10.33
2018-10-19T03:32:52.233Z,10.31
2018-10-19T03:35:20.473Z,10.28
2018-10-19T03:37:48.797Z,10.21
2018-10-19T03:40:17.139Z,10.15
2018-10-19T03:42:45.476Z,10.21
2018-10-19T03:45:13.830Z,10.18
2018-10-19T03:47:42.136Z,10.19
2018-10-19T03:50:10.456Z,10.18
2018-10-19T03:52:38.792Z,10.06
2018-10-19T03:55:07.170Z,10.03
2018-10-19T03:57:35.495Z,10.07
2018-10-19T04:00:04.013Z,10.02
2018-10-19T04:02:32.377Z,10.03
2018-10-19T04:05:00.724Z,10.01
2018-10-19T04:07:29.108Z,9.96
2018-10-19T04:09:57.442Z,9.97
2018-10-19T04:12:25.755Z,9.95
2018-10-19T04:14:54.122Z,9.90
2018-10-19T04:17:22.417Z,9.88
2018-10-19T04:19:50.763Z,9.92
2018-10-19T04:22:19.092Z,9.87
2018-10-19T04:24:47.415Z,9.81
2018-10-19T04:27:15.803Z,9.81
2018-10-19T04:29:44.093Z,9.77
2018-10-19T04:32:12.455Z,9.74
2018-10-19T04:34:40.756Z,9.66
2018-10-19T04:37:09.077Z,9.66
2018-10-19T04:39:37.407Z,9.60
2018-10-19T04:42:05.983Z,9.72
2018-10-19T04:44:34.220Z,9.64
2018-10-19T04:47:02.566Z,9.69
2018-10-19T04:49:30.894Z,9.67
2018-10-19T04:51:59.199Z,9.62
2018-10-19T04:54:27.507Z,9.67
2018-10-19T04:56:55.890Z,9.66
2018-10-19T04:59:24.169Z,9.68
2018-10-19T05:01:52.516Z,9.61
2018-10-19T05:04:20.853Z,9.62
2018-10-19T05:06:49.293Z,9.65
2018-10-19T05:09:17.628Z,9.63
2018-10-19T05:11:45.932Z,9.70
2018-10-19T05:14:14.292Z,9.65
2018-10-19T05:16:42.589Z,9.59
2018-10-19T05:19:10.922Z,9.58
2018-10-19T05:21:39.246Z,9.59
2018-10-19T05:24:07.565Z,9.62
2018-10-19T05:26:35.901Z,9.70
2018-10-19T05:29:04.264Z,9.68
2018-10-19T05:31:32.601Z,9.57
2018-10-19T05:34:00.933Z,9.60
2018-10-19T05:36:29.253Z,9.61
2018-10-19T05:38:57.584Z,9.64
2018-10-19T05:41:25.941Z,9.59
2018-10-19T05:43:54.327Z,9.59
2018-10-19T05:46:22.643Z,9.61
2018-10-19T05:48:51.064Z,9.69
2018-10-19T05:52:43.924Z,9.68
2018-10-19T05:55:12.237Z,9.67
2018-10-19T05:57:40.562Z,9.54
2018-10-19T06:00:10.020Z,9.62
2018-10-19T06:02:38.426Z,9.64
2018-10-19T06:05:07.207Z,9.57
2018-10-19T06:07:35.517Z,9.54
2018-10-19T06:10:03.859Z,9.56
2018-10-19T06:12:32.152Z,9.52
2018-10-19T06:15:00.500Z,9.56
2018-10-19T06:17:28.824Z,9.51
2018-10-19T06:19:57.148Z,9.56
2018-10-19T06:22:25.504Z,9.56
2018-10-19T06:24:53.812Z,9.57
2018-10-19T06:27:22.136Z,9.56
2018-10-19T06:29:50.445Z,9.68
2018-10-19T06:32:18.909Z,9.64
2018-10-19T06:34:47.102Z,9.59
2018-10-19T06:37:15.452Z,9.55
2018-10-19T06:39:43.789Z,9.55
2018-10-19T06:42:12.106Z,9.56
2018-10-19T06:44:40.456Z,9.63
2018-10-19T06:47:08.886Z,9.62
2018-10-19T06:49:37.137Z,9.78
2018-10-19T06:52:05.586Z,9.79
2018-10-19T06:54:33.896Z,9.75
2018-10-19T06:57:02.207Z,9.79
2018-10-19T06:59:30.547Z,9.86
2018-10-19T07:01:58.927Z,9.83
2018-10-19T07:04:27.230Z,9.90
2018-10-19T07:06:55.554Z,10.03
2018-10-19T07:09:23.904Z,10.09
2018-10-19T07:11:52.206Z,10.05
2018-10-19T07:14:20.530Z,10.07
2018-10-19T07:16:48.869Z,10.23
2018-10-19T07:19:17.197Z,10.26
2018-10-19T07:21:45.602Z,10.35
2018-10-19T07:24:13.913Z,10.30
2018-10-19T07:26:42.278Z,10.22
2018-10-19T07:29:10.601Z,10.23
2018-10-19T07:31:38.972Z,10.30
2018-10-19T07:34:07.317Z,10.52
2018-10-19T07:36:35.760Z,10.55
2018-10-19T07:39:04.784Z,10.71
2018-10-19T07:41:33.101Z,10.91
2018-10-19T07:44:01.419Z,10.88
2018-10-19T07:46:29.778Z,10.97
2018-10-19T07:48:58.097Z,11.01
2018-10-19T07:51:26.416Z,11.16
2018-10-19T07:53:54.824Z,11.22
2018-10-19T07:56:23.141Z,11.29
2018-10-19T07:58:51.467Z,11.44
2018-10-19T08:01:19.879Z,11.47
2018-10-19T08:03:48.239Z,11.70
2018-10-19T08:06:16.548Z,11.74
2018-10-19T08:08:44.882Z,11.98
2018-10-19T08:11:13.349Z,12.12
2018-10-19T08:13:41.620Z,11.94
2018-10-19T08:16:09.935Z,12.21
2018-10-19T08:18:38.270Z,11.94
2018-10-19T08:21:07.289Z,12.65
2018-10-19T08:23:35.585Z,12.81
2018-10-19T08:26:04.143Z,12.85
2018-10-19T08:28:32.448Z,13.09
2018-10-19T08:31:00.887Z,13.15
2018-10-19T08:33:29.488Z,13.65
2018-10-19T08:35:57.990Z,13.81
2018-10-19T08:38:26.313Z,13.70
2018-10-19T08:40:54.669Z,13.86
2018-10-19T08:43:23.027Z,13.81
2018-10-19T08:45:51.368Z,14.18
2018-10-19T08:48:19.717Z,14.30
2018-10-19T08:50:48.047Z,14.37
2018-10-19T08:53:16.428Z,14.51
2018-10-19T08:55:44.727Z,14.10
2018-10-19T08:58:13.107Z,14.05
2018-10-19T09:00:41.431Z,14.47
2018-10-19T09:03:09.843Z,14.06
2018-10-19T09:05:38.098Z,14.23
2018-10-19T09:08:06.446Z,14.55
2018-10-19T09:10:34.825Z,14.04
2018-10-19T09:13:03.189Z,14.80
2018-10-19T09:15:31.523Z,15.27
2018-10-19T09:17:59.925Z,15.18
2018-10-19T09:20:28.256Z,14.83
2018-10-19T09:22:56.619Z,14.78
2018-10-19T09:25:24.960Z,15.14
2018-10-19T09:27:53.276Z,15.11
2018-10-19T09:30:21.600Z,14.85
2018-10-19T09:32:49.929Z,14.59
2018-10-19T09:35:18.438Z,15.00
2018-10-19T09:37:46.704Z,15.55
2018-10-19T09:40:15.103Z,15.94
2018-10-19T09:42:43.410Z,16.06
2018-10-19T09:45:11.788Z,16.12
2018-10-19T09:47:40.204Z,15.57
2018-10-19T09:50:08.521Z,15.78
2018-10-19T09:52:36.842Z,16.11
2018-10-19T09:55:06.248Z,15.49
2018-10-19T09:57:34.537Z,15.73
2018-10-19T10:00:02.869Z,16.00
2018-10-19T10:02:31.198Z,16.64
2018-10-19T10:04:59.661Z,16.44
2018-10-19T10:07:28.006Z,16.15
2018-10-19T10:09:56.328Z,16.08
2018-10-19T10:12:24.673Z,16.02
2018-10-19T10:14:53.058Z,16.39
2018-10-19T10:17:21.334Z,15.59
2018-10-19T10:19:49.646Z,16.07
2018-10-19T10:22:18.054Z,16.20
2018-10-19T10:24:46.368Z,15.78
2018-10-19T10:27:14.685Z,15.89
2018-10-19T10:29:43.020Z,15.62
2018-10-19T10:32:11.409Z,15.51
2018-10-19T10:34:40.012Z,15.44
2018-10-19T10:37:08.400Z,15.44
2018-10-19T10:39:36.715Z,15.13
2018-10-19T10:42:05.298Z,15.14
2018-10-19T10:44:33.632Z,15.25
2018-10-19T10:47:02.091Z,15.18
2018-10-19T10:49:30.368Z,15.05
2018-10-19T10:51:58.683Z,15.20
2018-10-19T10:54:27.023Z,14.90
2018-10-19T10:56:55.336Z,14.83
2018-10-19T10:59:23.702Z,14.81
2018-10-19T11:01:52.031Z,14.86
2018-10-19T11:04:20.406Z,14.61
2018-10-19T11:06:48.743Z,14.71
2018-10-19T11:09:17.140Z,14.68
2018-10-19T11:11:46.480Z,14.77
2018-10-19T11:14:14.851Z,14.65
2018-10-19T11:16:43.209Z,14.72
2018-10-19T11:19:11.616Z,14.70
2018-10-19T11:21:39.999Z,14.56
2018-10-19T11:24:08.464Z,14.61
2018-10-19T11:26:38.667Z,14.54
2018-10-19T11:29:07.117Z,14.48
2018-10-19T11:31:36.242Z,14.36
2018-10-19T11:34:04.731Z,14.47
2018-10-19T11:36:43.525Z,14.52
2018-10-19T11:39:12.110Z,14.32
2018-10-19T11:41:41.116Z,14.37
2018-10-19T11:44:09.517Z,14.42
2018-10-19T11:46:37.993Z,14.36
2018-10-19T11:49:06.417Z,14.34
2018-10-19T11:51:34.809Z,14.33
2018-10-19T11:54:03.188Z,14.44
2018-10-19T11:56:31.553Z,14.36
2018-10-19T11:58:59.985Z,14.37
2018-10-19T12:01:28.624Z,14.37
2018-10-19T12:03:57.150Z,14.42
2018-10-19T12:06:25.589Z,14.46
2018-10-19T12:08:53.940Z,14.47
2018-10-19T12:11:22.330Z,14.32
2018-10-19T12:13:50.770Z,14.36
2018-10-19T12:16:19.260Z,14.42
2018-10-19T12:18:47.598Z,14.29
2018-10-19T12:21:16.119Z,14.37
2018-10-19T12:23:44.514Z,14.32
2018-10-19T12:26:12.945Z,14.30
2018-10-19T12:28:41.334Z,14.39
2018-10-19T12:31:10.324Z,14.42
2018-10-19T12:33:38.723Z,14.47
2018-10-19T12:36:07.102Z,14.46
2018-10-19T12:38:35.832Z,14.47
2018-10-19T12:41:04.271Z,14.54
2018-10-19T12:43:32.740Z,14.55
2018-10-19T12:46:22.974Z,14.52
2018-10-19T12:48:51.453Z,14.54
2018-10-19T12:51:20.623Z,14.50
2018-10-19T12:53:49.311Z,14.48
2018-10-19T12:56:18.918Z,14.49
2018-10-19T12:58:48.124Z,14.45
2018-10-19T13:01:17.324Z,14.43
2018-10-19T13:03:45.866Z,14.37
2018-10-19T13:06:14.682Z,14.47
2018-10-19T13:08:43.195Z,14.46
2018-10-19T13:11:11.734Z,14.51
2018-10-19T13:13:40.125Z,14.53
2018-10-19T13:16:08.774Z,14.53
2018-10-19T13:18:37.151Z,14.52
2018-10-19T13:21:05.572Z,14.51
2018-10-19T13:23:34.527Z,14.49
2018-10-19T13:26:03.253Z,14.51
2018-10-19T13:28:31.744Z,14.47
2018-10-19T13:31:00.192Z,14.47
2018-10-19T13:33:28.601Z,14.50
2018-10-19T13:35:57.080Z,14.53
2018-10-19T13:38:25.648Z,14.52
2018-10-19T13:40:54.860Z,14.50
2018-10-19T13:43:23.530Z,14.47
2018-10-19T13:45:52.405Z,14.37
2018-10-19T13:48:21.426Z,14.32
2018-10-19T13:50:49.845Z,14.32
2018-10-19T13:53:18.310Z,14.37
2018-10-19T13:55:46.692Z,14.37
2018-10-19T13:58:15.616Z,14.25
2018-10-19T14:00:44.020Z,14.22
2018-10-19T14:03:12.532Z,14.32
2018-10-19T14:05:41.028Z,14.35
2018-10-19T14:08:09.377Z,14.27
2018-10-19T14:10:37.730Z,14.22
2018-10-19T14:13:06.672Z,14.15
2018-10-19T14:15:35.107Z,14.19
2018-10-19T14:18:03.817Z,14.16
2018-10-19T14:20:32.249Z,14.17
2018-10-19T14:23:00.679Z,14.08
2018-10-19T14:25:29.022Z,14.03
2018-10-19T14:27:57.431Z,14.05
2018-10-19T14:30:25.829Z,13.98
2018-10-19T14:32:54.346Z,13.99
2018-10-19T14:35:22.862Z,13.97
2018-10-19T14:37:51.346Z,13.94
2018-10-19T14:40:20.673Z,13.90
2018-10-19T14:42:49.257Z,13.91
2018-10-19T14:45:18.312Z,13.94
2018-10-19T14:47:47.383Z,13.93
2018-10-19T14:50:17.157Z,13.78
2018-10-19T14:52:45.533Z,13.83
2018-10-19T14:55:18.329Z,13.82
2018-10-19T14:57:46.709Z,13.82
2018-10-19T15:00:16.273Z,13.77
2018-10-19T15:02:44.783Z,13.74
2018-10-19T15:05:15.611Z,13.71
2018-10-19T15:07:43.997Z,13.68
2018-10-19T15:10:14.775Z,13.61
2018-10-19T15:12:43.433Z,13.61
2018-10-19T15:15:14.386Z,13.56
2018-10-19T15:17:43.059Z,13.51
2018-10-19T15:20:12.136Z,13.47
2018-10-19T15:22:40.630Z,13.39
2018-10-19T15:25:09.832Z,13.39
2018-10-19T15:27:39.132Z,13.39
2018-10-19T15:30:08.565Z,13.35
2018-10-19T15:32:37.014Z,13.31
2018-10-19T15:35:05.900Z,13.27
2018-10-19T15:37:34.402Z,13.27
2018-10-19T15:40:02.864Z,13.23
2018-10-19T15:42:31.329Z,13.18
2018-10-19T15:44:59.708Z,13.13
2018-10-19T15:47:31.495Z,13.05
2018-10-19T15:49:59.888Z,13.03
2018-10-19T15:52:28.863Z,12.99
2018-10-19T15:54:57.284Z,12.94
2018-10-19T15:57:25.753Z,12.84
2018-10-19T15:59:54.250Z,12.81
2018-10-19T16:02:22.720Z,12.77
2018-10-19T16:04:51.233Z,12.71
2018-10-19T16:07:20.077Z,12.65
2018-10-19T16:09:48.727Z,12.62
2018-10-19T16:12:17.129Z,12.57
2018-10-19T16:14:45.517Z,12.46
2018-10-19T16:17:13.861Z,12.42
2018-10-19T16:19:43.155Z,12.39
2018-10-19T16:22:11.565Z,12.29
2018-10-19T16:24:39.949Z,12.26
2018-10-19T16:27:08.440Z,12.18
2018-10-19T16:29:36.833Z,12.16
2018-10-19T16:32:05.777Z,12.13
2018-10-19T16:34:34.154Z,12.08
2018-10-19T16:37:02.613Z,11.99
2018-10-19T16:39:30.979Z,11.97
2018-10-19T16:41:59.511Z,11.92
2018-10-19T16:44:27.871Z,11.81
2018-10-19T16:46:56.340Z,11.79
2018-10-19T16:49:24.720Z,11.76
2018-10-19T16:51:53.153Z,11.72
2018-10-19T16:54:21.548Z,11.67
2018-10-19T16:56:49.953Z,11.59
2018-10-19T16:59:18.337Z,11.56
2018-10-19T17:01:46.738Z,11.50
2018-10-19T17:04:15.187Z,11.46
2018-10-19T17:06:43.679Z,11.38
2018-10-19T17:09:13.716Z,11.35
2018-10-19T17:11:42.529Z,11.34
2018-10-19T17:14:11.478Z,11.27
2018-10-19T17:16:39.905Z,11.22
2018-10-19T17:19:08.875Z,11.18
2018-10-19T17:21:37.250Z,11.20
2018-10-19T17:24:05.734Z,11.21
2018-10-19T17:26:34.211Z,11.18
2018-10-19T17:29:02.708Z,11.09
2018-10-19T17:31:31.197Z,11.09
2018-10-19T17:33:59.604Z,11.07
2018-10-19T17:36:28.000Z,10.99
2018-10-19T17:38:56.428Z,10.99
2018-10-19T17:41:24.898Z,10.94
2018-10-19T17:43:53.324Z,10.87
2018-10-19T17:46:21.695Z,10.85
2018-10-19T17:48:50.329Z,10.81
2018-10-19T17:51:18.783Z,10.77
2018-10-19T17:53:47.178Z,10.76
2018-10-19T17:56:15.592Z,10.73
2018-10-19T17:58:44.003Z,10.65
2018-10-19T18:01:12.448Z,10.61
2018-10-19T18:03:40.921Z,10.63
2018-10-19T18:06:09.496Z,10.58
2018-10-19T18:08:37.781Z,10.57
2018-10-19T18:11:06.302Z,10.52
2018-10-19T18:13:34.663Z,10.42
2018-10-19T18:16:03.210Z,10.36
2018-10-19T18:18:31.556Z,10.35
2018-10-19T18:20:59.954Z,10.39
2018-10-19T18:23:28.427Z,10.37
2018-10-19T18:25:56.833Z,10.27
2018-10-19T18:28:25.239Z,10.29
2018-10-19T18:30:53.601Z,10.28
2018-10-19T18:33:22.006Z,10.27
2018-10-19T18:35:50.417Z,10.25
2018-10-19T18:38:18.932Z,10.19
2018-10-19T18:40:47.712Z,10.12
2018-10-19T18:43:16.100Z,10.10
2018-10-19T18:45:44.480Z,10.11
2018-10-19T18:48:12.992Z,10.06
2018-10-19T18:50:41.432Z,10.02
2018-10-19T18:53:10.173Z,10.02
2018-10-19T18:55:38.543Z,10.02
2018-10-19T18:58:06.995Z,9.96
2018-10-19T19:00:35.581Z,9.91
2018-10-19T19:03:03.949Z,9.86
2018-10-19T19:05:32.416Z,9.80
2018-10-19T19:08:00.817Z,9.70
2018-10-19T19:10:29.220Z,9.69
2018-10-19T19:13:30.803Z,9.68
2018-10-19T19:15:59.716Z,9.67
2018-10-19T19:18:28.086Z,9.62
2018-10-19T19:20:56.948Z,9.61
2018-10-19T19:23:25.496Z,9.62
2018-10-19T19:25:59.565Z,9.56
2018-10-19T19:28:28.602Z,9.57
2018-10-19T19:30:57.092Z,9.52
2018-10-19T19:33:30.752Z,9.50
2018-10-19T19:35:59.184Z,9.50
2018-10-19T19:38:27.657Z,9.46
2018-10-19T19:41:01.525Z,9.43
2018-10-19T19:43:29.923Z,9.35
2018-10-19T19:45:58.311Z,9.34
2018-10-19T19:48:32.138Z,9.32
2018-10-19T19:51:00.553Z,9.22
2018-10-19T19:53:28.965Z,9.20
2018-10-19T19:55:57.348Z,9.08
2018-10-19T19:58:26.169Z,9.11
2018-10-19T20:00:54.672Z,8.98
2018-10-19T20:03:23.057Z,9.06
2018-10-19T20:05:52.165Z,9.07
2018-10-19T20:08:20.555Z,8.96
2018-10-19T20:10:49.001Z,9.01
2018-10-19T20:13:17.392Z,9.00
2018-10-19T20:15:45.809Z,8.89
2018-10-19T20:18:14.285Z,8.96
2018-10-19T20:20:42.733Z,8.95
2018-10-19T20:23:11.266Z,8.93
2018-10-19T20:25:39.796Z,8.87
2018-10-19T20:28:08.250Z,8.87
2018-10-19T20:30:36.741Z,8.79
2018-10-19T20:33:05.200Z,8.81
2018-10-19T20:35:33.600Z,8.78
2018-10-19T20:38:02.130Z,8.79
2018-10-19T20:40:30.584Z,8.78
2018-10-19T20:42:59.081Z,8.76
2018-10-19T20:45:27.461Z,8.67
2018-10-19T20:47:55.972Z,8.57
2018-10-19T20:50:24.519Z,8.56
2018-10-19T20:52:52.988Z,8.60
2018-10-19T20:55:21.454Z,8.54
2018-10-19T20:57:49.916Z,8.56
2018-10-19T21:00:18.290Z,8.49
2018-10-19T21:02:46.774Z,8.54
2018-10-19T21:05:15.318Z,8.47
2018-10-19T21:07:43.736Z,8.49
2018-10-19T21:10:13.624Z,8.49
2018-10-19T21:12:42.083Z,8.48
2018-10-19T21:15:12.816Z,8.41
2018-10-19T21:17:42.289Z,8.36
2018-10-19T21:20:11.677Z,8.40
2018-10-19T21:22:40.053Z,8.38
2018-10-19T21:25:09.692Z,8.31
2018-10-19T21:27:38.936Z,8.27
2018-10-19T21:30:08.739Z,8.24
2018-10-19T21:32:37.521Z,8.20
2018-10-19T21:35:05.993Z,8.22
2018-10-19T21:37:34.398Z,8.20
2018-10-19T21:40:03.115Z,8.09
2018-10-19T21:42:31.493Z,8.13
2018-10-19T21:44:59.854Z,8.10
2018-10-19T21:47:28.542Z,8.13
2018-10-19T21:49:57.197Z,8.11
2018-10-19T21:52:25.833Z,8.02
2018-10-19T21:54:54.227Z,7.94
2018-10-19T21:57:22.612Z,8.00
2018-10-19T21:59:50.979Z,7.98
2018-10-19T22:02:20.169Z,7.96
2018-10-19T22:04:48.760Z,7.97
2018-10-19T22:07:17.249Z,7.95
2018-10-19T22:09:45.712Z,7.93
2018-10-19T22:12:14.086Z,7.87
2018-10-19T22:14:43.439Z,7.83
2018-10-19T22:17:11.908Z,7.80
2018-10-19T22:19:41.684Z,7.64
2018-10-19T22:22:10.119Z,7.60
2018-10-19T22:24:38.483Z,7.67
2018-10-19T22:27:06.922Z,7.72
2018-10-19T22:29:35.262Z,7.73
2018-10-19T22:32:03.646Z,7.71
2018-10-19T22:34:32.099Z,7.70
2018-10-19T22:37:00.506Z,7.67
2018-10-19T22:39:28.904Z,7.59
2018-10-19T22:41:57.282Z,7.57
2018-10-19T22:44:25.692Z,7.59
2018-10-19T22:46:54.138Z,7.50
2018-10-19T22:49:22.482Z,7.54
2018-10-19T22:51:50.853Z,7.50
2018-10-19T22:54:19.221Z,7.52
2018-10-19T22:56:47.847Z,7.42
2018-10-19T22:59:16.978Z,7.45
2018-10-19T23:01:45.456Z,7.48
2018-10-19T23:04:13.842Z,7.32
2018-10-19T23:06:42.303Z,7.30
2018-10-19T23:09:10.719Z,7.38
2018-10-19T23:11:39.112Z,7.37
2018-10-19T23:14:07.589Z,7.36
2018-10-19T23:16:36.028Z,7.37
2018-10-19T23:19:04.410Z,7.20
2018-10-19T23:21:32.841Z,7.27
2018-10-19T23:24:01.228Z,7.23
2018-10-19T23:26:29.593Z,7.13
2018-10-19T23:28:57.972Z,7.14
2018-10-19T23:31:26.485Z,7.22
2018-10-19T23:33:54.841Z,7.22
2018-10-19T23:36:23.216Z,7.11
2018-10-19T23:38:51.648Z,7.13
2018-10-19T23:41:20.437Z,7.11
2018-10-19T23:43:48.866Z,7.02
2018-10-19T23:46:17.160Z,6.92
2018-10-19T23:48:45.501Z,6.92
2018-10-19T23:51:13.864Z,7.00
2018-10-19T23:53:42.233Z,7.04
2018-10-19T23:56:10.588Z,7.00
2018-10-19T23:58:38.930Z,6.90
